N316EV KSNA-KLAS
Flight info
| Callsign | N316EV |
|---|---|
| Flight time | N/A |
| Altitude | 15000 |
| Route | MUSEL8 DAG CRESO5 |
| Aircraft | BE58/L-VGD/A |
Departure
| Time | 2026-05-01 14:55 |
|---|---|
| Airport | John Wayne Orange County International Airport (KSNA) |
Arrival
| Time | N/A |
|---|---|
| Airport | Harry Reid International Airport (KLAS) |
| Time | Latitude | Longitude | Altitude | Speed | Heading |
|---|---|---|---|---|---|
| 2026-05-01 14:44 | 33.67202 | -117.86757 | 50 ft | 0 kts | 235° |
| 2026-05-01 14:48 | 33.67204 | -117.86763 | 50 ft | 0 kts | 327° |
| 2026-05-01 14:48 | 33.67205 | -117.86763 | 50 ft | 0 kts | 327° |
| 2026-05-01 14:49 | 33.67214 | -117.86771 | 50 ft | 5 kts | 328° |
| 2026-05-01 14:49 | 33.67306 | -117.86738 | 49 ft | 10 kts | 43° |
| 2026-05-01 14:50 | 33.67433 | -117.86637 | 47 ft | 14 kts | 28° |
| 2026-05-01 14:50 | 33.67666 | -117.86488 | 44 ft | 18 kts | 28° |
| 2026-05-01 14:51 | 33.67781 | -117.86416 | 43 ft | 18 kts | 27° |
| 2026-05-01 14:51 | 33.68010 | -117.86271 | 39 ft | 13 kts | 15° |
| 2026-05-01 14:52 | 33.68084 | -117.86347 | 41 ft | 7 kts | 297° |
| 2026-05-01 14:52 | 33.68116 | -117.86422 | 41 ft | 10 kts | 298° |
| 2026-05-01 14:52 | 33.68122 | -117.86436 | 41 ft | 0 kts | 296° |
| 2026-05-01 14:54 | 33.68125 | -117.86442 | 41 ft | 4 kts | 296° |
| 2026-05-01 14:54 | 33.68136 | -117.86523 | 41 ft | 11 kts | 227° |
| 2026-05-01 14:54 | 33.68034 | -117.86591 | 42 ft | 45 kts | 207° |
| 2026-05-01 14:54 | 33.67538 | -117.86909 | 79 ft | 105 kts | 205° |
| 2026-05-01 14:55 | 33.66808 | -117.87390 | 306 ft | 129 kts | 206° |
| 2026-05-01 14:55 | 33.65987 | -117.87937 | 621 ft | 138 kts | 207° |
| 2026-05-01 14:55 | 33.65116 | -117.88502 | 863 ft | 149 kts | 206° |
| 2026-05-01 14:55 | 33.64169 | -117.89074 | 1133 ft | 155 kts | 205° |
| 2026-05-01 14:56 | 33.63192 | -117.89645 | 1429 ft | 157 kts | 204° |
| 2026-05-01 14:56 | 33.62192 | -117.90172 | 1713 ft | 159 kts | 201° |
| 2026-05-01 14:56 | 33.61172 | -117.90721 | 1960 ft | 163 kts | 211° |
| 2026-05-01 14:56 | 33.60321 | -117.91653 | 2155 ft | 169 kts | 232° |
| 2026-05-01 14:57 | 33.59783 | -117.92884 | 2449 ft | 167 kts | 253° |
| 2026-05-01 14:57 | 33.60475 | -117.95390 | 2864 ft | 168 kts | 319° |
| 2026-05-01 14:57 | 33.61175 | -117.96474 | 3128 ft | 169 kts | 289° |
| 2026-05-01 14:58 | 33.61480 | -117.97816 | 3327 ft | 170 kts | 297° |
| 2026-05-01 14:58 | 33.62288 | -117.98822 | 3387 ft | 174 kts | 336° |
| 2026-05-01 14:58 | 33.63420 | -117.99316 | 3634 ft | 169 kts | 342° |
| 2026-05-01 14:58 | 33.64534 | -117.99754 | 3826 ft | 170 kts | 343° |
| 2026-05-01 14:59 | 33.65686 | -118.00195 | 3931 ft | 175 kts | 343° |
| 2026-05-01 14:59 | 33.66846 | -118.00633 | 4101 ft | 174 kts | 343° |
| 2026-05-01 14:59 | 33.67990 | -118.01057 | 4267 ft | 174 kts | 343° |
| 2026-05-01 14:59 | 33.69162 | -118.01495 | 4434 ft | 174 kts | 340° |
| 2026-05-01 15:00 | 33.71410 | -118.02567 | 4762 ft | 173 kts | 340° |
| 2026-05-01 15:00 | 33.72545 | -118.03057 | 4915 ft | 173 kts | 341° |
| 2026-05-01 15:00 | 33.73680 | -118.03536 | 5070 ft | 173 kts | 341° |
| 2026-05-01 15:01 | 33.74816 | -118.04011 | 5222 ft | 173 kts | 341° |
| 2026-05-01 15:01 | 33.75964 | -118.04489 | 5375 ft | 174 kts | 341° |
| 2026-05-01 15:01 | 33.77116 | -118.04970 | 5530 ft | 174 kts | 341° |
| 2026-05-01 15:01 | 33.78292 | -118.05145 | 5663 ft | 174 kts | 13° |
| 2026-05-01 15:02 | 33.79383 | -118.04469 | 5810 ft | 176 kts | 32° |
| 2026-05-01 15:02 | 33.80049 | -118.03901 | 5908 ft | 176 kts | 34° |
| 2026-05-01 15:02 | 33.81362 | -118.02736 | 6104 ft | 177 kts | 34° |
| 2026-05-01 15:02 | 33.82357 | -118.01842 | 6251 ft | 178 kts | 35° |
| 2026-05-01 15:03 | 33.83343 | -118.00951 | 6399 ft | 180 kts | 34° |
| 2026-05-01 15:03 | 33.84342 | -118.00048 | 6551 ft | 180 kts | 35° |
| 2026-05-01 15:03 | 33.85349 | -117.99136 | 6703 ft | 181 kts | 35° |
| 2026-05-01 15:03 | 33.86358 | -117.98223 | 6857 ft | 181 kts | 35° |
| 2026-05-01 15:04 | 33.87376 | -117.97302 | 7009 ft | 181 kts | 35° |
| 2026-05-01 15:04 | 33.88374 | -117.96397 | 7163 ft | 181 kts | 35° |
| 2026-05-01 15:04 | 33.89387 | -117.95480 | 7318 ft | 181 kts | 35° |
| 2026-05-01 15:04 | 33.90404 | -117.94559 | 7471 ft | 182 kts | 35° |
| 2026-05-01 15:05 | 33.91404 | -117.93652 | 7619 ft | 182 kts | 36° |
| 2026-05-01 15:05 | 33.92418 | -117.92732 | 7795 ft | 180 kts | 36° |
| 2026-05-01 15:05 | 33.93413 | -117.91830 | 7973 ft | 179 kts | 36° |
| 2026-05-01 15:05 | 33.94408 | -117.90926 | 8148 ft | 178 kts | 36° |
| 2026-05-01 15:06 | 33.95396 | -117.90031 | 8319 ft | 178 kts | 36° |
| 2026-05-01 15:06 | 33.96382 | -117.89136 | 8485 ft | 178 kts | 36° |
| 2026-05-01 15:06 | 33.97368 | -117.88240 | 8649 ft | 177 kts | 36° |
| 2026-05-01 15:06 | 33.98348 | -117.87350 | 8811 ft | 176 kts | 36° |
| 2026-05-01 15:07 | 33.99332 | -117.86455 | 8967 ft | 176 kts | 36° |
| 2026-05-01 15:07 | 34.00296 | -117.85579 | 9123 ft | 175 kts | 37° |
| 2026-05-01 15:07 | 34.01281 | -117.84684 | 9278 ft | 175 kts | 37° |
| 2026-05-01 15:07 | 34.02251 | -117.83802 | 9432 ft | 175 kts | 37° |
| 2026-05-01 15:08 | 34.03216 | -117.82924 | 9588 ft | 175 kts | 37° |
| 2026-05-01 15:08 | 34.04190 | -117.82037 | 9741 ft | 174 kts | 37° |
| 2026-05-01 15:08 | 34.05161 | -117.81153 | 9898 ft | 174 kts | 37° |
| 2026-05-01 15:08 | 34.06123 | -117.80276 | 10053 ft | 174 kts | 37° |
| 2026-05-01 15:09 | 34.07085 | -117.79400 | 10208 ft | 174 kts | 37° |
| 2026-05-01 15:09 | 34.08019 | -117.78467 | 10358 ft | 174 kts | 45° |
| 2026-05-01 15:09 | 34.08836 | -117.77386 | 10505 ft | 174 kts | 47° |
| 2026-05-01 15:09 | 34.09636 | -117.76302 | 10650 ft | 173 kts | 47° |
| 2026-05-01 15:10 | 34.10444 | -117.75214 | 10796 ft | 173 kts | 46° |
| 2026-05-01 15:10 | 34.12049 | -117.73053 | 11082 ft | 173 kts | 47° |
| 2026-05-01 15:10 | 34.12858 | -117.71963 | 11231 ft | 173 kts | 46° |
| 2026-05-01 15:11 | 34.13662 | -117.70881 | 11402 ft | 171 kts | 46° |
| 2026-05-01 15:11 | 34.15241 | -117.68757 | 11721 ft | 170 kts | 46° |
| 2026-05-01 15:11 | 34.16032 | -117.67691 | 11877 ft | 170 kts | 46° |
| 2026-05-01 15:12 | 34.16821 | -117.66629 | 12027 ft | 170 kts | 46° |
| 2026-05-01 15:12 | 34.18413 | -117.64482 | 12329 ft | 170 kts | 45° |
| 2026-05-01 15:12 | 34.19197 | -117.63424 | 12474 ft | 170 kts | 45° |
| 2026-05-01 15:13 | 34.21557 | -117.60238 | 12893 ft | 169 kts | 45° |
| 2026-05-01 15:14 | 34.23123 | -117.58122 | 13162 ft | 168 kts | 45° |
| 2026-05-01 15:14 | 34.23905 | -117.57064 | 13290 ft | 168 kts | 44° |
| 2026-05-01 15:14 | 34.25456 | -117.54966 | 13515 ft | 168 kts | 44° |
| 2026-05-01 15:15 | 34.27016 | -117.52855 | 13777 ft | 168 kts | 44° |
| 2026-05-01 15:15 | 34.28570 | -117.50750 | 13985 ft | 168 kts | 43° |
| 2026-05-01 15:16 | 34.30127 | -117.48640 | 14219 ft | 168 kts | 43° |
| 2026-05-01 15:16 | 34.31691 | -117.46519 | 14422 ft | 168 kts | 42° |
| 2026-05-01 15:17 | 34.33254 | -117.44399 | 14644 ft | 169 kts | 43° |
| 2026-05-01 15:18 | 34.35595 | -117.41220 | 14989 ft | 169 kts | 42° |
| 2026-05-01 15:18 | 34.36386 | -117.40148 | 14991 ft | 175 kts | 42° |
| 2026-05-01 15:19 | 34.38889 | -117.36745 | 14985 ft | 183 kts | 43° |
| 2026-05-01 15:19 | 34.40593 | -117.34425 | 14986 ft | 185 kts | 43° |
| 2026-05-01 15:19 | 34.41455 | -117.33252 | 14985 ft | 186 kts | 43° |
| 2026-05-01 15:20 | 34.43180 | -117.30901 | 14981 ft | 187 kts | 43° |
| 2026-05-01 15:20 | 34.44048 | -117.29719 | 14980 ft | 188 kts | 43° |
| 2026-05-01 15:20 | 34.44908 | -117.28545 | 14980 ft | 188 kts | 43° |
| 2026-05-01 15:21 | 34.45782 | -117.27354 | 14976 ft | 188 kts | 43° |
| 2026-05-01 15:21 | 34.46654 | -117.26164 | 14974 ft | 188 kts | 43° |
| 2026-05-01 15:21 | 34.47523 | -117.24978 | 14973 ft | 188 kts | 43° |
| 2026-05-01 15:21 | 34.48401 | -117.23779 | 14971 ft | 188 kts | 43° |
| 2026-05-01 15:22 | 34.50137 | -117.21407 | 14971 ft | 188 kts | 43° |
| 2026-05-01 15:22 | 34.51001 | -117.20228 | 14970 ft | 188 kts | 43° |
| 2026-05-01 15:22 | 34.51874 | -117.19034 | 14970 ft | 188 kts | 43° |
| 2026-05-01 15:23 | 34.52739 | -117.17852 | 14967 ft | 188 kts | 43° |
| 2026-05-01 15:23 | 34.53609 | -117.16662 | 14968 ft | 188 kts | 43° |
| 2026-05-01 15:23 | 34.54480 | -117.15470 | 14971 ft | 188 kts | 43° |
| 2026-05-01 15:23 | 34.55351 | -117.14278 | 14970 ft | 189 kts | 43° |
| 2026-05-01 15:24 | 34.56214 | -117.13095 | 14969 ft | 189 kts | 43° |
| 2026-05-01 15:24 | 34.57087 | -117.11901 | 14966 ft | 189 kts | 43° |
| 2026-05-01 15:24 | 34.57957 | -117.10706 | 14965 ft | 189 kts | 43° |
| 2026-05-01 15:24 | 34.58838 | -117.09500 | 14961 ft | 189 kts | 43° |
| 2026-05-01 15:25 | 34.59707 | -117.08308 | 14954 ft | 189 kts | 43° |
| 2026-05-01 15:25 | 34.60578 | -117.07114 | 14954 ft | 189 kts | 43° |
| 2026-05-01 15:25 | 34.61446 | -117.05922 | 14956 ft | 188 kts | 43° |
| 2026-05-01 15:25 | 34.62306 | -117.04743 | 14960 ft | 188 kts | 43° |
| 2026-05-01 15:26 | 34.63172 | -117.03554 | 14959 ft | 188 kts | 43° |
| 2026-05-01 15:26 | 34.64041 | -117.02360 | 14958 ft | 188 kts | 43° |
| 2026-05-01 15:26 | 34.64910 | -117.01166 | 14955 ft | 189 kts | 43° |
| 2026-05-01 15:26 | 34.65780 | -116.99970 | 14953 ft | 189 kts | 43° |
| 2026-05-01 15:27 | 34.66652 | -116.98771 | 14953 ft | 189 kts | 43° |
| 2026-05-01 15:27 | 34.67525 | -116.97570 | 14953 ft | 189 kts | 43° |
| 2026-05-01 15:27 | 34.68401 | -116.96365 | 14953 ft | 189 kts | 43° |
| 2026-05-01 15:28 | 34.70138 | -116.93973 | 14957 ft | 189 kts | 43° |
| 2026-05-01 15:28 | 34.71010 | -116.92773 | 14960 ft | 189 kts | 43° |
| 2026-05-01 15:28 | 34.71876 | -116.91579 | 14957 ft | 189 kts | 43° |
| 2026-05-01 15:29 | 34.73609 | -116.89189 | 15006 ft | 186 kts | 43° |
| 2026-05-01 15:29 | 34.74467 | -116.88007 | 15009 ft | 187 kts | 43° |
| 2026-05-01 15:29 | 34.76194 | -116.85626 | 15008 ft | 188 kts | 43° |
| 2026-05-01 15:30 | 34.77927 | -116.83231 | 15003 ft | 189 kts | 43° |
| 2026-05-01 15:31 | 34.81397 | -116.78435 | 14999 ft | 189 kts | 43° |
| 2026-05-01 15:31 | 34.83141 | -116.76021 | 14996 ft | 188 kts | 43° |
| 2026-05-01 15:32 | 34.84856 | -116.73647 | 14999 ft | 188 kts | 43° |
| 2026-05-01 15:32 | 34.86590 | -116.71245 | 14990 ft | 188 kts | 43° |
| 2026-05-01 15:33 | 34.89185 | -116.67645 | 14979 ft | 189 kts | 43° |
| 2026-05-01 15:34 | 34.91781 | -116.64040 | 14976 ft | 188 kts | 42° |